sensor_id;sensor_type;location;lat;lon;timestamp;temperature;humidity
19435;DHT22;9853;50.848;4.108;2023-02-28T00:01:10;2.30;99.90
19435;DHT22;9853;50.848;4.108;2023-02-28T00:03:24;2.20;99.90
19435;DHT22;9853;50.848;4.108;2023-02-28T00:06:28;2.20;99.90
19435;DHT22;9853;50.848;4.108;2023-02-28T00:08:31;2.10;99.90
19435;DHT22;9853;50.848;4.108;2023-02-28T00:10:56;2.00;99.90
19435;DHT22;9853;50.848;4.108;2023-02-28T00:13:39;2.00;99.90
19435;DHT22;9853;50.848;4.108;2023-02-28T00:16:29;2.00;99.90
19435;DHT22;9853;50.848;4.108;2023-02-28T00:21:59;2.10;99.90
19435;DHT22;9853;50.848;4.108;2023-02-28T00:36:26;2.10;99.90
19435;DHT22;9853;50.848;4.108;2023-02-28T00:53:46;2.10;99.90
19435;DHT22;9853;50.848;4.108;2023-02-28T01:02:03;1.90;99.90
19435;DHT22;9853;50.848;4.108;2023-02-28T04:01:45;1.40;99.90
19435;DHT22;9853;50.848;4.108;2023-02-28T04:04:29;1.40;99.90
19435;DHT22;9853;50.848;4.108;2023-02-28T04:06:34;1.40;99.90
19435;DHT22;9853;50.848;4.108;2023-02-28T04:08:42;1.30;99.90
19435;DHT22;9853;50.848;4.108;2023-02-28T04:11:34;1.30;99.90
19435;DHT22;9853;50.848;4.108;2023-02-28T04:13:15;1.20;99.90
19435;DHT22;9853;50.848;4.108;2023-02-28T04:15:18;1.20;99.90
19435;DHT22;9853;50.848;4.108;2023-02-28T04:17:46;1.20;99.90
19435;DHT22;9853;50.848;4.108;2023-02-28T04:20:08;1.20;99.90
19435;DHT22;9853;50.848;4.108;2023-02-28T04:22:34;1.10;99.90
19435;DHT22;9853;50.848;4.108;2023-02-28T04:46:32;1.70;99.90
19435;DHT22;9853;50.848;4.108;2023-02-28T04:48:58;2.00;99.90
19435;DHT22;9853;50.848;4.108;2023-02-28T04:51:12;2.00;99.90
19435;DHT22;9853;50.848;4.108;2023-02-28T04:53:41;2.00;99.90
19435;DHT22;9853;50.848;4.108;2023-02-28T04:56:25;2.00;99.90
19435;DHT22;9853;50.848;4.108;2023-02-28T04:58:26;2.00;99.90
19435;DHT22;9853;50.848;4.108;2023-02-28T05:00:32;1.90;99.90
19435;DHT22;9853;50.848;4.108;2023-02-28T05:02:43;1.80;99.90
19435;DHT22;9853;50.848;4.108;2023-02-28T05:04:55;1.80;99.90
19435;DHT22;9853;50.848;4.108;2023-02-28T05:06:56;1.80;99.90
19435;DHT22;9853;50.848;4.108;2023-02-28T05:08:57;1.90;99.90
19435;DHT22;9853;50.848;4.108;2023-02-28T05:10:59;1.80;99.90
19435;DHT22;9853;50.848;4.108;2023-02-28T05:13:01;1.70;99.90
19435;DHT22;9853;50.848;4.108;2023-02-28T05:15:03;1.60;99.90
19435;DHT22;9853;50.848;4.108;2023-02-28T05:17:05;1.60;99.90
19435;DHT22;9853;50.848;4.108;2023-02-28T05:19:06;1.60;99.90
19435;DHT22;9853;50.848;4.108;2023-02-28T05:21:23;1.60;99.90
19435;DHT22;9853;50.848;4.108;2023-02-28T05:23:25;1.60;99.90
19435;DHT22;9853;50.848;4.108;2023-02-28T05:25:25;1.50;99.90
19435;DHT22;9853;50.848;4.108;2023-02-28T05:27:26;1.50;99.90
19435;DHT22;9853;50.848;4.108;2023-02-28T05:29:28;1.50;99.90
19435;DHT22;9853;50.848;4.108;2023-02-28T05:31:29;1.60;99.90
19435;DHT22;9853;50.848;4.108;2023-02-28T05:33:33;1.60;99.90
19435;DHT22;9853;50.848;4.108;2023-02-28T05:35:38;1.60;99.90
19435;DHT22;9853;50.848;4.108;2023-02-28T05:37:39;1.60;99.90
19435;DHT22;9853;50.848;4.108;2023-02-28T05:39:40;1.60;99.90
19435;DHT22;9853;50.848;4.108;2023-02-28T05:41:42;1.60;99.90
19435;DHT22;9853;50.848;4.108;2023-02-28T05:43:49;1.60;99.90
19435;DHT22;9853;50.848;4.108;2023-02-28T05:45:52;1.70;99.90
19435;DHT22;9853;50.848;4.108;2023-02-28T05:47:54;1.60;99.90
19435;DHT22;9853;50.848;4.108;2023-02-28T05:49:55;1.70;99.90
19435;DHT22;9853;50.848;4.108;2023-02-28T05:51:56;1.70;99.90
19435;DHT22;9853;50.848;4.108;2023-02-28T05:54:01;1.70;99.90
19435;DHT22;9853;50.848;4.108;2023-02-28T05:56:03;1.70;99.90
19435;DHT22;9853;50.848;4.108;2023-02-28T05:58:04;1.80;99.90
19435;DHT22;9853;50.848;4.108;2023-02-28T06:00:05;1.80;99.90
19435;DHT22;9853;50.848;4.108;2023-02-28T06:02:14;1.80;99.90
19435;DHT22;9853;50.848;4.108;2023-02-28T06:04:18;1.80;99.90
19435;DHT22;9853;50.848;4.108;2023-02-28T06:06:23;1.70;99.90
19435;DHT22;9853;50.848;4.108;2023-02-28T06:08:24;1.60;99.90
19435;DHT22;9853;50.848;4.108;2023-02-28T06:10:25;1.70;99.90
19435;DHT22;9853;50.848;4.108;2023-02-28T06:12:26;1.70;99.90
19435;DHT22;9853;50.848;4.108;2023-02-28T06:14:27;1.70;99.90
19435;DHT22;9853;50.848;4.108;2023-02-28T06:16:29;1.70;99.90
19435;DHT22;9853;50.848;4.108;2023-02-28T06:18:30;1.70;99.90
19435;DHT22;9853;50.848;4.108;2023-02-28T06:20:31;1.70;99.90
19435;DHT22;9853;50.848;4.108;2023-02-28T06:22:32;1.80;99.90
19435;DHT22;9853;50.848;4.108;2023-02-28T06:24:32;1.80;99.90
19435;DHT22;9853;50.848;4.108;2023-02-28T17:03:39;5.10;99.90
19435;DHT22;9853;50.848;4.108;2023-02-28T17:05:43;5.00;99.90
